sensor_id;sensor_type;location;lat;lon;timestamp;temperature;humidity
26336;DHT22;14047;50.936;4.654;2023-09-19T00:01:42;15.70;99.90
26336;DHT22;14047;50.936;4.654;2023-09-19T00:04:12;15.70;99.90
26336;DHT22;14047;50.936;4.654;2023-09-19T00:06:39;15.70;99.90
26336;DHT22;14047;50.936;4.654;2023-09-19T00:09:05;15.70;99.90
26336;DHT22;14047;50.936;4.654;2023-09-19T00:11:36;15.70;99.90
26336;DHT22;14047;50.936;4.654;2023-09-19T00:14:03;15.70;99.90
26336;DHT22;14047;50.936;4.654;2023-09-19T00:16:30;15.70;99.90
26336;DHT22;14047;50.936;4.654;2023-09-19T00:18:58;15.60;99.90
26336;DHT22;14047;50.936;4.654;2023-09-19T00:21:25;15.60;99.90
26336;DHT22;14047;50.936;4.654;2023-09-19T00:23:51;15.60;99.90
26336;DHT22;14047;50.936;4.654;2023-09-19T00:26:17;15.60;99.90
26336;DHT22;14047;50.936;4.654;2023-09-19T00:28:47;15.70;99.90
26336;DHT22;14047;50.936;4.654;2023-09-19T00:31:13;15.70;99.90
26336;DHT22;14047;50.936;4.654;2023-09-19T00:33:39;15.70;99.90
26336;DHT22;14047;50.936;4.654;2023-09-19T00:36:05;15.70;99.90
26336;DHT22;14047;50.936;4.654;2023-09-19T00:38:31;15.60;99.90
26336;DHT22;14047;50.936;4.654;2023-09-19T00:40:57;15.60;99.90
26336;DHT22;14047;50.936;4.654;2023-09-19T00:43:25;15.70;99.90
26336;DHT22;14047;50.936;4.654;2023-09-19T00:45:54;15.60;99.90
26336;DHT22;14047;50.936;4.654;2023-09-19T00:48:21;15.60;99.90
26336;DHT22;14047;50.936;4.654;2023-09-19T00:50:48;15.50;99.90
26336;DHT22;14047;50.936;4.654;2023-09-19T00:53:20;15.60;99.90
26336;DHT22;14047;50.936;4.654;2023-09-19T00:55:47;15.50;99.90
26336;DHT22;14047;50.936;4.654;2023-09-19T00:58:13;15.50;99.90
26336;DHT22;14047;50.936;4.654;2023-09-19T01:00:40;15.40;99.90
26336;DHT22;14047;50.936;4.654;2023-09-19T01:03:07;15.40;99.90
26336;DHT22;14047;50.936;4.654;2023-09-19T01:05:36;15.30;99.90
26336;DHT22;14047;50.936;4.654;2023-09-19T01:08:02;15.20;99.90
26336;DHT22;14047;50.936;4.654;2023-09-19T01:10:28;15.30;99.90
26336;DHT22;14047;50.936;4.654;2023-09-19T01:12:55;15.30;99.90
26336;DHT22;14047;50.936;4.654;2023-09-19T01:23:23;15.30;99.90
26336;DHT22;14047;50.936;4.654;2023-09-19T01:29:01;15.20;99.90
26336;DHT22;14047;50.936;4.654;2023-09-19T01:31:31;15.10;99.90
26336;DHT22;14047;50.936;4.654;2023-09-19T01:34:02;15.10;99.90
26336;DHT22;14047;50.936;4.654;2023-09-19T01:36:35;15.20;99.90
26336;DHT22;14047;50.936;4.654;2023-09-19T01:39:04;15.10;99.90
26336;DHT22;14047;50.936;4.654;2023-09-19T01:41:58;15.10;99.90
26336;DHT22;14047;50.936;4.654;2023-09-19T01:44:51;15.10;99.90
26336;DHT22;14047;50.936;4.654;2023-09-19T01:47:38;15.10;99.90
26336;DHT22;14047;50.936;4.654;2023-09-19T01:50:20;15.00;99.90
26336;DHT22;14047;50.936;4.654;2023-09-19T01:52:57;15.00;99.90
26336;DHT22;14047;50.936;4.654;2023-09-19T01:55:26;15.00;99.90
26336;DHT22;14047;50.936;4.654;2023-09-19T01:58:04;15.00;99.90
26336;DHT22;14047;50.936;4.654;2023-09-19T02:00:37;15.00;99.90
26336;DHT22;14047;50.936;4.654;2023-09-19T02:03:06;14.90;99.90
26336;DHT22;14047;50.936;4.654;2023-09-19T02:05:32;15.00;99.90
26336;DHT22;14047;50.936;4.654;2023-09-19T02:07:58;15.00;99.90
26336;DHT22;14047;50.936;4.654;2023-09-19T02:10:24;15.10;99.90
26336;DHT22;14047;50.936;4.654;2023-09-19T02:12:51;15.20;99.90
26336;DHT22;14047;50.936;4.654;2023-09-19T02:15:17;15.00;99.90
26336;DHT22;14047;50.936;4.654;2023-09-19T02:17:43;14.90;99.90
26336;DHT22;14047;50.936;4.654;2023-09-19T02:20:11;14.90;99.90
26336;DHT22;14047;50.936;4.654;2023-09-19T02:22:41;14.90;99.90
26336;DHT22;14047;50.936;4.654;2023-09-19T02:25:08;14.90;99.90
26336;DHT22;14047;50.936;4.654;2023-09-19T02:27:35;15.00;99.90
26336;DHT22;14047;50.936;4.654;2023-09-19T02:30:02;15.00;99.90
26336;DHT22;14047;50.936;4.654;2023-09-19T02:32:30;14.90;99.90
26336;DHT22;14047;50.936;4.654;2023-09-19T02:35:02;15.00;99.90
26336;DHT22;14047;50.936;4.654;2023-09-19T02:37:31;15.20;99.90
26336;DHT22;14047;50.936;4.654;2023-09-19T02:39:57;15.20;99.90
26336;DHT22;14047;50.936;4.654;2023-09-19T02:42:23;15.30;99.90
26336;DHT22;14047;50.936;4.654;2023-09-19T02:44:49;15.30;99.90
26336;DHT22;14047;50.936;4.654;2023-09-19T02:47:15;15.40;99.90
26336;DHT22;14047;50.936;4.654;2023-09-19T02:49:42;15.50;99.90
26336;DHT22;14047;50.936;4.654;2023-09-19T02:52:10;15.50;99.90
26336;DHT22;14047;50.936;4.654;2023-09-19T02:54:37;15.40;99.90
26336;DHT22;14047;50.936;4.654;2023-09-19T02:57:03;15.60;99.90
26336;DHT22;14047;50.936;4.654;2023-09-19T02:59:32;15.50;99.90
26336;DHT22;14047;50.936;4.654;2023-09-19T03:01:58;15.50;99.90
26336;DHT22;14047;50.936;4.654;2023-09-19T03:04:24;15.40;99.90
26336;DHT22;14047;50.936;4.654;2023-09-19T03:06:52;15.40;99.90
26336;DHT22;14047;50.936;4.654;2023-09-19T03:09:24;15.30;99.90
26336;DHT22;14047;50.936;4.654;2023-09-19T03:11:50;15.50;99.90
26336;DHT22;14047;50.936;4.654;2023-09-19T03:14:16;15.60;99.90
26336;DHT22;14047;50.936;4.654;2023-09-19T03:16:43;15.50;99.90
26336;DHT22;14047;50.936;4.654;2023-09-19T03:19:10;15.50;99.90
26336;DHT22;14047;50.936;4.654;2023-09-19T03:21:37;15.40;99.90
26336;DHT22;14047;50.936;4.654;2023-09-19T03:24:05;15.30;99.90
26336;DHT22;14047;50.936;4.654;2023-09-19T03:26:32;15.30;99.90
26336;DHT22;14047;50.936;4.654;2023-09-19T03:28:59;15.20;99.90
26336;DHT22;14047;50.936;4.654;2023-09-19T03:31:25;15.30;99.90
26336;DHT22;14047;50.936;4.654;2023-09-19T03:33:51;15.50;99.90
26336;DHT22;14047;50.936;4.654;2023-09-19T03:36:17;15.50;99.90
26336;DHT22;14047;50.936;4.654;2023-09-19T03:38:43;15.40;99.90
26336;DHT22;14047;50.936;4.654;2023-09-19T03:41:09;15.30;99.90
26336;DHT22;14047;50.936;4.654;2023-09-19T03:43:36;15.30;99.90
26336;DHT22;14047;50.936;4.654;2023-09-19T03:46:03;15.20;99.90
26336;DHT22;14047;50.936;4.654;2023-09-19T03:48:31;15.20;99.90
26336;DHT22;14047;50.936;4.654;2023-09-19T03:50:57;15.20;99.90
26336;DHT22;14047;50.936;4.654;2023-09-19T03:53:23;15.10;99.90
26336;DHT22;14047;50.936;4.654;2023-09-19T03:55:49;15.10;99.90
26336;DHT22;14047;50.936;4.654;2023-09-19T03:58:16;15.10;99.90
26336;DHT22;14047;50.936;4.654;2023-09-19T04:00:42;15.20;99.90
26336;DHT22;14047;50.936;4.654;2023-09-19T04:03:08;15.20;99.90
26336;DHT22;14047;50.936;4.654;2023-09-19T04:05:34;15.20;99.90
26336;DHT22;14047;50.936;4.654;2023-09-19T04:08:00;15.20;99.90
26336;DHT22;14047;50.936;4.654;2023-09-19T04:10:26;15.20;99.90
26336;DHT22;14047;50.936;4.654;2023-09-19T04:12:54;15.30;99.90
26336;DHT22;14047;50.936;4.654;2023-09-19T04:15:22;15.30;99.90
26336;DHT22;14047;50.936;4.654;2023-09-19T04:17:50;15.20;99.90
26336;DHT22;14047;50.936;4.654;2023-09-19T04:20:17;15.20;99.90
26336;DHT22;14047;50.936;4.654;2023-09-19T04:22:45;15.10;99.90
26336;DHT22;14047;50.936;4.654;2023-09-19T04:25:12;15.20;99.90
26336;DHT22;14047;50.936;4.654;2023-09-19T04:27:38;15.30;99.90
26336;DHT22;14047;50.936;4.654;2023-09-19T04:30:05;15.10;99.90
26336;DHT22;14047;50.936;4.654;2023-09-19T04:32:36;15.20;99.90
26336;DHT22;14047;50.936;4.654;2023-09-19T04:35:06;15.20;99.90
26336;DHT22;14047;50.936;4.654;2023-09-19T04:37:39;15.10;99.90
26336;DHT22;14047;50.936;4.654;2023-09-19T04:40:09;15.00;99.90
26336;DHT22;14047;50.936;4.654;2023-09-19T04:42:40;15.00;99.90
26336;DHT22;14047;50.936;4.654;2023-09-19T04:45:07;15.00;99.90
26336;DHT22;14047;50.936;4.654;2023-09-19T04:47:35;15.00;99.90
26336;DHT22;14047;50.936;4.654;2023-09-19T04:50:01;14.90;99.90
26336;DHT22;14047;50.936;4.654;2023-09-19T04:52:27;14.90;99.90
26336;DHT22;14047;50.936;4.654;2023-09-19T04:54:56;14.80;99.90
26336;DHT22;14047;50.936;4.654;2023-09-19T04:57:23;14.70;99.90
26336;DHT22;14047;50.936;4.654;2023-09-19T04:59:48;14.70;99.90
26336;DHT22;14047;50.936;4.654;2023-09-19T05:02:15;14.70;99.90
26336;DHT22;14047;50.936;4.654;2023-09-19T05:04:41;14.60;99.90
26336;DHT22;14047;50.936;4.654;2023-09-19T05:07:07;14.50;99.90
26336;DHT22;14047;50.936;4.654;2023-09-19T05:09:33;14.40;99.90
26336;DHT22;14047;50.936;4.654;2023-09-19T05:12:00;14.30;99.90
26336;DHT22;14047;50.936;4.654;2023-09-19T05:14:26;14.30;99.90
26336;DHT22;14047;50.936;4.654;2023-09-19T05:16:52;14.20;99.90
26336;DHT22;14047;50.936;4.654;2023-09-19T05:19:18;14.30;99.90
26336;DHT22;14047;50.936;4.654;2023-09-19T05:21:44;14.30;99.90
26336;DHT22;14047;50.936;4.654;2023-09-19T05:24:10;14.30;99.90
26336;DHT22;14047;50.936;4.654;2023-09-19T05:26:38;14.50;99.90
26336;DHT22;14047;50.936;4.654;2023-09-19T05:29:05;14.50;99.90
26336;DHT22;14047;50.936;4.654;2023-09-19T05:31:33;14.40;99.90
26336;DHT22;14047;50.936;4.654;2023-09-19T05:34:02;14.40;99.90
26336;DHT22;14047;50.936;4.654;2023-09-19T05:36:28;14.40;99.90
26336;DHT22;14047;50.936;4.654;2023-09-19T05:38:55;14.30;99.90
26336;DHT22;14047;50.936;4.654;2023-09-19T05:41:21;14.30;99.90
26336;DHT22;14047;50.936;4.654;2023-09-19T05:43:49;14.30;99.90
26336;DHT22;14047;50.936;4.654;2023-09-19T05:46:16;14.30;99.90
26336;DHT22;14047;50.936;4.654;2023-09-19T05:48:42;14.40;99.90
26336;DHT22;14047;50.936;4.654;2023-09-19T05:51:10;14.40;99.90
26336;DHT22;14047;50.936;4.654;2023-09-19T05:53:36;14.40;99.90
26336;DHT22;14047;50.936;4.654;2023-09-19T05:56:01;14.60;99.90
26336;DHT22;14047;50.936;4.654;2023-09-19T05:58:27;14.60;99.90
26336;DHT22;14047;50.936;4.654;2023-09-19T06:00:54;14.70;99.90
26336;DHT22;14047;50.936;4.654;2023-09-19T06:03:20;14.80;99.90
26336;DHT22;14047;50.936;4.654;2023-09-19T06:05:46;14.90;99.90
26336;DHT22;14047;50.936;4.654;2023-09-19T06:08:15;14.90;99.90
26336;DHT22;14047;50.936;4.654;2023-09-19T06:10:40;15.00;99.90
26336;DHT22;14047;50.936;4.654;2023-09-19T06:13:06;15.10;99.90
26336;DHT22;14047;50.936;4.654;2023-09-19T06:15:35;15.10;99.90
26336;DHT22;14047;50.936;4.654;2023-09-19T06:18:02;15.10;99.90
26336;DHT22;14047;50.936;4.654;2023-09-19T06:20:30;15.10;99.90
26336;DHT22;14047;50.936;4.654;2023-09-19T06:22:57;15.20;99.90
26336;DHT22;14047;50.936;4.654;2023-09-19T06:25:23;15.20;99.90
26336;DHT22;14047;50.936;4.654;2023-09-19T06:27:50;15.40;99.90
26336;DHT22;14047;50.936;4.654;2023-09-19T06:30:18;15.40;99.90
26336;DHT22;14047;50.936;4.654;2023-09-19T06:32:44;15.40;99.90
26336;DHT22;14047;50.936;4.654;2023-09-19T06:35:11;15.20;99.90
26336;DHT22;14047;50.936;4.654;2023-09-19T06:37:38;15.20;99.90
26336;DHT22;14047;50.936;4.654;2023-09-19T06:40:07;15.10;99.90
26336;DHT22;14047;50.936;4.654;2023-09-19T06:42:35;15.10;99.90
26336;DHT22;14047;50.936;4.654;2023-09-19T06:45:04;15.20;99.90
26336;DHT22;14047;50.936;4.654;2023-09-19T06:47:31;15.30;99.90
26336;DHT22;14047;50.936;4.654;2023-09-19T06:49:57;15.40;99.90
26336;DHT22;14047;50.936;4.654;2023-09-19T06:52:23;15.30;99.90
26336;DHT22;14047;50.936;4.654;2023-09-19T06:54:49;15.40;99.90
26336;DHT22;14047;50.936;4.654;2023-09-19T06:57:16;15.40;99.90
26336;DHT22;14047;50.936;4.654;2023-09-19T06:59:42;15.50;99.90
26336;DHT22;14047;50.936;4.654;2023-09-19T07:02:08;15.40;99.90
26336;DHT22;14047;50.936;4.654;2023-09-19T07:04:34;15.50;99.90
26336;DHT22;14047;50.936;4.654;2023-09-19T07:07:00;15.60;99.90
26336;DHT22;14047;50.936;4.654;2023-09-19T07:09:26;15.50;99.90
26336;DHT22;14047;50.936;4.654;2023-09-19T07:11:54;15.50;99.90
26336;DHT22;14047;50.936;4.654;2023-09-19T07:14:20;15.50;99.90
26336;DHT22;14047;50.936;4.654;2023-09-19T07:16:46;15.50;99.90
26336;DHT22;14047;50.936;4.654;2023-09-19T07:19:16;15.60;99.90
26336;DHT22;14047;50.936;4.654;2023-09-19T07:21:42;15.70;99.90
26336;DHT22;14047;50.936;4.654;2023-09-19T07:24:08;15.60;99.90
26336;DHT22;14047;50.936;4.654;2023-09-19T07:26:34;15.70;99.90
26336;DHT22;14047;50.936;4.654;2023-09-19T07:29:00;15.80;99.90
26336;DHT22;14047;50.936;4.654;2023-09-19T07:31:29;15.80;99.90
26336;DHT22;14047;50.936;4.654;2023-09-19T07:33:56;15.80;99.90
26336;DHT22;14047;50.936;4.654;2023-09-19T07:36:22;16.00;99.90
26336;DHT22;14047;50.936;4.654;2023-09-19T07:38:50;16.10;99.90
26336;DHT22;14047;50.936;4.654;2023-09-19T07:41:16;16.10;99.90
26336;DHT22;14047;50.936;4.654;2023-09-19T07:43:42;16.20;99.90
26336;DHT22;14047;50.936;4.654;2023-09-19T07:46:09;16.20;99.90
26336;DHT22;14047;50.936;4.654;2023-09-19T07:48:35;16.30;99.90
26336;DHT22;14047;50.936;4.654;2023-09-19T07:51:03;16.30;99.90
26336;DHT22;14047;50.936;4.654;2023-09-19T07:53:29;16.40;99.90
26336;DHT22;14047;50.936;4.654;2023-09-19T07:56:06;16.50;99.90
26336;DHT22;14047;50.936;4.654;2023-09-19T07:58:32;16.70;99.90
26336;DHT22;14047;50.936;4.654;2023-09-19T08:01:09;16.80;99.90
26336;DHT22;14047;50.936;4.654;2023-09-19T08:03:37;16.70;99.90
26336;DHT22;14047;50.936;4.654;2023-09-19T08:06:10;16.70;99.90
26336;DHT22;14047;50.936;4.654;2023-09-19T08:08:36;16.80;99.90
26336;DHT22;14047;50.936;4.654;2023-09-19T08:11:06;16.90;99.90
26336;DHT22;14047;50.936;4.654;2023-09-19T08:13:41;17.00;99.90
26336;DHT22;14047;50.936;4.654;2023-09-19T08:16:12;17.20;99.90
26336;DHT22;14047;50.936;4.654;2023-09-19T08:18:41;17.20;99.90
26336;DHT22;14047;50.936;4.654;2023-09-19T08:21:07;17.20;99.90
26336;DHT22;14047;50.936;4.654;2023-09-19T08:23:37;17.20;99.90
26336;DHT22;14047;50.936;4.654;2023-09-19T08:26:06;17.40;99.90
26336;DHT22;14047;50.936;4.654;2023-09-19T08:28:34;17.40;99.90
26336;DHT22;14047;50.936;4.654;2023-09-19T08:31:05;17.30;99.90
26336;DHT22;14047;50.936;4.654;2023-09-19T08:33:36;17.30;99.90
26336;DHT22;14047;50.936;4.654;2023-09-19T08:36:03;17.20;99.90
26336;DHT22;14047;50.936;4.654;2023-09-19T08:38:33;17.40;99.90
26336;DHT22;14047;50.936;4.654;2023-09-19T08:40:59;17.60;99.90
26336;DHT22;14047;50.936;4.654;2023-09-19T08:43:26;17.80;99.90
26336;DHT22;14047;50.936;4.654;2023-09-19T08:46:11;18.00;99.90
26336;DHT22;14047;50.936;4.654;2023-09-19T08:49:03;18.00;99.90
26336;DHT22;14047;50.936;4.654;2023-09-19T08:51:45;17.70;99.90
26336;DHT22;14047;50.936;4.654;2023-09-19T08:56:46;17.90;99.90
26336;DHT22;14047;50.936;4.654;2023-09-19T08:59:14;18.10;99.90
26336;DHT22;14047;50.936;4.654;2023-09-19T09:01:42;18.20;99.90
26336;DHT22;14047;50.936;4.654;2023-09-19T09:04:09;18.10;99.90
26336;DHT22;14047;50.936;4.654;2023-09-19T09:06:38;18.10;99.90
26336;DHT22;14047;50.936;4.654;2023-09-19T09:09:05;18.30;99.90
26336;DHT22;14047;50.936;4.654;2023-09-19T09:11:33;18.40;99.90
26336;DHT22;14047;50.936;4.654;2023-09-19T09:13:59;18.70;99.90
26336;DHT22;14047;50.936;4.654;2023-09-19T09:16:25;18.90;99.90
26336;DHT22;14047;50.936;4.654;2023-09-19T09:18:52;18.90;99.90
26336;DHT22;14047;50.936;4.654;2023-09-19T09:21:21;18.50;99.90
26336;DHT22;14047;50.936;4.654;2023-09-19T09:23:51;18.50;99.90
26336;DHT22;14047;50.936;4.654;2023-09-19T09:26:55;18.70;99.90
26336;DHT22;14047;50.936;4.654;2023-09-19T09:29:16;18.80;99.90
26336;DHT22;14047;50.936;4.654;2023-09-19T09:31:41;19.00;99.90
26336;DHT22;14047;50.936;4.654;2023-09-19T09:34:08;19.00;99.90
26336;DHT22;14047;50.936;4.654;2023-09-19T09:36:39;19.30;99.90
26336;DHT22;14047;50.936;4.654;2023-09-19T09:39:07;19.40;99.90
26336;DHT22;14047;50.936;4.654;2023-09-19T09:41:50;19.40;99.90
26336;DHT22;14047;50.936;4.654;2023-09-19T09:44:17;19.30;99.90
26336;DHT22;14047;50.936;4.654;2023-09-19T09:46:48;19.40;99.90
26336;DHT22;14047;50.936;4.654;2023-09-19T09:49:24;19.40;99.90
26336;DHT22;14047;50.936;4.654;2023-09-19T09:52:06;19.60;99.90
26336;DHT22;14047;50.936;4.654;2023-09-19T09:55:04;19.60;99.90
26336;DHT22;14047;50.936;4.654;2023-09-19T09:57:36;19.60;99.90
26336;DHT22;14047;50.936;4.654;2023-09-19T10:00:07;19.40;99.90
26336;DHT22;14047;50.936;4.654;2023-09-19T10:02:39;19.20;99.90
26336;DHT22;14047;50.936;4.654;2023-09-19T10:05:13;19.20;99.90
26336;DHT22;14047;50.936;4.654;2023-09-19T10:07:51;19.20;99.90
26336;DHT22;14047;50.936;4.654;2023-09-19T10:10:36;19.20;99.90
26336;DHT22;14047;50.936;4.654;2023-09-19T10:13:12;19.00;99.90
26336;DHT22;14047;50.936;4.654;2023-09-19T10:15:46;18.90;99.90
26336;DHT22;14047;50.936;4.654;2023-09-19T10:18:20;18.80;99.90
26336;DHT22;14047;50.936;4.654;2023-09-19T10:20:47;18.90;99.90
26336;DHT22;14047;50.936;4.654;2023-09-19T10:23:17;18.90;99.90
26336;DHT22;14047;50.936;4.654;2023-09-19T10:25:48;18.90;99.90
26336;DHT22;14047;50.936;4.654;2023-09-19T10:28:16;19.10;99.90
26336;DHT22;14047;50.936;4.654;2023-09-19T10:30:44;19.00;99.90
26336;DHT22;14047;50.936;4.654;2023-09-19T10:33:14;19.00;99.90
26336;DHT22;14047;50.936;4.654;2023-09-19T10:35:45;19.10;99.90
26336;DHT22;14047;50.936;4.654;2023-09-19T10:38:14;19.20;99.90
26336;DHT22;14047;50.936;4.654;2023-09-19T10:40:40;19.40;99.90
26336;DHT22;14047;50.936;4.654;2023-09-19T10:43:16;19.30;99.90
26336;DHT22;14047;50.936;4.654;2023-09-19T10:45:48;19.20;99.90
26336;DHT22;14047;50.936;4.654;2023-09-19T10:48:16;19.30;99.90
26336;DHT22;14047;50.936;4.654;2023-09-19T10:53:27;19.60;99.90
26336;DHT22;14047;50.936;4.654;2023-09-19T10:55:57;19.70;99.90
26336;DHT22;14047;50.936;4.654;2023-09-19T10:58:26;19.90;99.90
26336;DHT22;14047;50.936;4.654;2023-09-19T11:00:56;19.90;99.90
26336;DHT22;14047;50.936;4.654;2023-09-19T11:03:25;19.90;99.90
26336;DHT22;14047;50.936;4.654;2023-09-19T11:06:16;19.90;99.90
26336;DHT22;14047;50.936;4.654;2023-09-19T11:08:59;19.70;99.90
26336;DHT22;14047;50.936;4.654;2023-09-19T11:11:44;19.90;99.90
26336;DHT22;14047;50.936;4.654;2023-09-19T11:30:39;20.60;99.90
26336;DHT22;14047;50.936;4.654;2023-09-19T11:36:06;20.80;99.90
26336;DHT22;14047;50.936;4.654;2023-09-19T11:49:29;21.20;99.90
26336;DHT22;14047;50.936;4.654;2023-09-19T11:52:01;21.30;99.90
26336;DHT22;14047;50.936;4.654;2023-09-19T11:54:31;21.50;99.90
26336;DHT22;14047;50.936;4.654;2023-09-19T11:56:58;21.40;99.90
26336;DHT22;14047;50.936;4.654;2023-09-19T11:59:26;21.30;99.90
26336;DHT22;14047;50.936;4.654;2023-09-19T12:01:55;21.10;99.90
26336;DHT22;14047;50.936;4.654;2023-09-19T12:07:08;21.40;99.90
26336;DHT22;14047;50.936;4.654;2023-09-19T12:10:04;21.40;99.90
26336;DHT22;14047;50.936;4.654;2023-09-19T12:12:30;21.30;99.90
26336;DHT22;14047;50.936;4.654;2023-09-19T12:14:58;21.20;99.90
26336;DHT22;14047;50.936;4.654;2023-09-19T12:17:38;20.90;99.90
26336;DHT22;14047;50.936;4.654;2023-09-19T12:20:05;21.10;99.90
26336;DHT22;14047;50.936;4.654;2023-09-19T12:22:44;21.00;99.90
26336;DHT22;14047;50.936;4.654;2023-09-19T12:25:12;21.10;99.90
26336;DHT22;14047;50.936;4.654;2023-09-19T12:27:46;21.00;99.90
26336;DHT22;14047;50.936;4.654;2023-09-19T12:30:14;21.00;99.90
26336;DHT22;14047;50.936;4.654;2023-09-19T12:32:40;20.90;99.90
26336;DHT22;14047;50.936;4.654;2023-09-19T12:35:08;21.20;99.90
26336;DHT22;14047;50.936;4.654;2023-09-19T12:37:37;21.20;99.90
26336;DHT22;14047;50.936;4.654;2023-09-19T12:40:05;21.10;99.90
26336;DHT22;14047;50.936;4.654;2023-09-19T12:42:46;21.30;99.90
26336;DHT22;14047;50.936;4.654;2023-09-19T12:45:14;21.30;99.90
26336;DHT22;14047;50.936;4.654;2023-09-19T12:47:41;21.30;99.90
26336;DHT22;14047;50.936;4.654;2023-09-19T12:50:26;21.30;99.90
26336;DHT22;14047;50.936;4.654;2023-09-19T12:52:56;21.40;99.90
26336;DHT22;14047;50.936;4.654;2023-09-19T12:55:28;21.30;99.90
26336;DHT22;14047;50.936;4.654;2023-09-19T13:00:51;21.60;99.90
26336;DHT22;14047;50.936;4.654;2023-09-19T13:05:58;20.80;99.90
26336;DHT22;14047;50.936;4.654;2023-09-19T13:08:28;20.70;99.90
26336;DHT22;14047;50.936;4.654;2023-09-19T13:14:14;20.70;99.90
26336;DHT22;14047;50.936;4.654;2023-09-19T13:17:10;20.70;99.90
26336;DHT22;14047;50.936;4.654;2023-09-19T13:19:49;20.60;99.90
26336;DHT22;14047;50.936;4.654;2023-09-19T13:22:44;20.50;99.90
26336;DHT22;14047;50.936;4.654;2023-09-19T13:25:30;20.10;99.90
26336;DHT22;14047;50.936;4.654;2023-09-19T13:27:58;20.10;99.90
26336;DHT22;14047;50.936;4.654;2023-09-19T13:30:26;20.20;99.90
26336;DHT22;14047;50.936;4.654;2023-09-19T13:33:05;20.20;99.90
26336;DHT22;14047;50.936;4.654;2023-09-19T13:35:35;20.20;99.90
26336;DHT22;14047;50.936;4.654;2023-09-19T13:38:04;20.20;99.90
26336;DHT22;14047;50.936;4.654;2023-09-19T13:40:30;20.20;99.90
26336;DHT22;14047;50.936;4.654;2023-09-19T13:43:01;20.20;99.90
26336;DHT22;14047;50.936;4.654;2023-09-19T13:45:27;20.10;99.90
26336;DHT22;14047;50.936;4.654;2023-09-19T13:47:56;20.40;99.90
26336;DHT22;14047;50.936;4.654;2023-09-19T13:50:23;20.40;99.90
26336;DHT22;14047;50.936;4.654;2023-09-19T13:52:50;20.40;99.90
26336;DHT22;14047;50.936;4.654;2023-09-19T13:55:17;20.70;99.90
26336;DHT22;14047;50.936;4.654;2023-09-19T13:57:49;20.70;99.90
26336;DHT22;14047;50.936;4.654;2023-09-19T14:00:22;21.00;99.90
26336;DHT22;14047;50.936;4.654;2023-09-19T14:02:48;21.10;99.90
26336;DHT22;14047;50.936;4.654;2023-09-19T14:05:15;21.20;99.90
26336;DHT22;14047;50.936;4.654;2023-09-19T14:07:42;21.00;99.90
26336;DHT22;14047;50.936;4.654;2023-09-19T14:10:10;21.10;99.90
26336;DHT22;14047;50.936;4.654;2023-09-19T14:12:37;21.20;99.90
26336;DHT22;14047;50.936;4.654;2023-09-19T14:15:04;21.40;99.90
26336;DHT22;14047;50.936;4.654;2023-09-19T14:17:31;21.60;99.90
26336;DHT22;14047;50.936;4.654;2023-09-19T14:19:57;21.60;99.90
26336;DHT22;14047;50.936;4.654;2023-09-19T14:22:22;21.60;99.90
26336;DHT22;14047;50.936;4.654;2023-09-19T14:24:48;21.50;99.90
26336;DHT22;14047;50.936;4.654;2023-09-19T14:27:14;21.50;99.90
26336;DHT22;14047;50.936;4.654;2023-09-19T14:29:40;21.60;99.90
26336;DHT22;14047;50.936;4.654;2023-09-19T14:32:07;21.70;99.90
26336;DHT22;14047;50.936;4.654;2023-09-19T14:34:33;21.40;99.90
26336;DHT22;14047;50.936;4.654;2023-09-19T14:36:59;21.30;99.90
26336;DHT22;14047;50.936;4.654;2023-09-19T14:39:25;21.30;99.90
26336;DHT22;14047;50.936;4.654;2023-09-19T14:41:51;21.30;99.90
26336;DHT22;14047;50.936;4.654;2023-09-19T14:44:17;21.40;99.90
26336;DHT22;14047;50.936;4.654;2023-09-19T14:46:43;21.60;99.90
26336;DHT22;14047;50.936;4.654;2023-09-19T14:49:12;21.50;99.90
26336;DHT22;14047;50.936;4.654;2023-09-19T14:51:38;21.40;99.90
26336;DHT22;14047;50.936;4.654;2023-09-19T14:54:07;21.50;99.90
26336;DHT22;14047;50.936;4.654;2023-09-19T14:56:33;21.70;99.90
26336;DHT22;14047;50.936;4.654;2023-09-19T14:59:00;21.50;99.90
26336;DHT22;14047;50.936;4.654;2023-09-19T15:01:26;21.40;99.90
26336;DHT22;14047;50.936;4.654;2023-09-19T15:03:52;21.20;99.90
26336;DHT22;14047;50.936;4.654;2023-09-19T15:06:20;21.20;99.90
26336;DHT22;14047;50.936;4.654;2023-09-19T15:08:47;21.00;99.90
26336;DHT22;14047;50.936;4.654;2023-09-19T15:11:15;20.70;99.90
26336;DHT22;14047;50.936;4.654;2023-09-19T15:13:44;20.50;99.90
26336;DHT22;14047;50.936;4.654;2023-09-19T15:16:10;20.50;99.90
26336;DHT22;14047;50.936;4.654;2023-09-19T15:18:38;20.30;99.90
26336;DHT22;14047;50.936;4.654;2023-09-19T15:21:06;20.10;99.90
26336;DHT22;14047;50.936;4.654;2023-09-19T15:23:33;20.10;99.90
26336;DHT22;14047;50.936;4.654;2023-09-19T15:26:00;20.20;99.90
26336;DHT22;14047;50.936;4.654;2023-09-19T15:28:27;20.10;99.90
26336;DHT22;14047;50.936;4.654;2023-09-19T15:31:03;20.10;99.90
26336;DHT22;14047;50.936;4.654;2023-09-19T15:33:32;20.20;99.90
26336;DHT22;14047;50.936;4.654;2023-09-19T15:36:05;20.20;99.90
26336;DHT22;14047;50.936;4.654;2023-09-19T15:39:00;20.40;99.90
26336;DHT22;14047;50.936;4.654;2023-09-19T15:41:31;20.40;99.90
26336;DHT22;14047;50.936;4.654;2023-09-19T15:43:59;20.40;99.90
26336;DHT22;14047;50.936;4.654;2023-09-19T15:46:27;20.40;99.90
26336;DHT22;14047;50.936;4.654;2023-09-19T15:48:56;20.60;99.90
26336;DHT22;14047;50.936;4.654;2023-09-19T15:51:23;20.50;99.90
26336;DHT22;14047;50.936;4.654;2023-09-19T15:53:51;20.50;99.90
26336;DHT22;14047;50.936;4.654;2023-09-19T15:56:18;20.20;99.90
26336;DHT22;14047;50.936;4.654;2023-09-19T15:58:54;20.20;99.90
26336;DHT22;14047;50.936;4.654;2023-09-19T16:01:21;20.10;99.90
26336;DHT22;14047;50.936;4.654;2023-09-19T16:03:49;20.10;99.90
26336;DHT22;14047;50.936;4.654;2023-09-19T16:06:18;20.20;99.90
26336;DHT22;14047;50.936;4.654;2023-09-19T16:08:46;20.30;99.90
26336;DHT22;14047;50.936;4.654;2023-09-19T16:11:16;20.00;99.90
26336;DHT22;14047;50.936;4.654;2023-09-19T16:13:43;19.90;99.90
26336;DHT22;14047;50.936;4.654;2023-09-19T16:16:14;19.70;99.90
26336;DHT22;14047;50.936;4.654;2023-09-19T16:18:46;19.50;99.90
26336;DHT22;14047;50.936;4.654;2023-09-19T16:21:13;19.60;99.90
26336;DHT22;14047;50.936;4.654;2023-09-19T16:23:40;19.60;99.90
26336;DHT22;14047;50.936;4.654;2023-09-19T16:26:07;19.60;99.90
26336;DHT22;14047;50.936;4.654;2023-09-19T16:28:40;19.60;99.90
26336;DHT22;14047;50.936;4.654;2023-09-19T16:31:07;19.60;99.90
26336;DHT22;14047;50.936;4.654;2023-09-19T16:33:37;19.70;99.90
26336;DHT22;14047;50.936;4.654;2023-09-19T16:36:08;19.60;99.90
26336;DHT22;14047;50.936;4.654;2023-09-19T16:38:35;19.70;99.90
26336;DHT22;14047;50.936;4.654;2023-09-19T16:41:02;19.80;99.90